| time (UTC) | temp C | wind direction | speed KPH | gust KPH | rain 1hr cm | rain 24hr cm | rain mn cm | humidity % | barometer mb |
| 20260505095141 | 4 | 90 | 0.0 | 0.0 | 0.00 | 0.18 | 0.05 | 94 | 1003.0 |
| 20260505094122 | 4 | 90 | 1.6 | 3.2 | 0.00 | 0.18 | 0.05 | 95 | 1003.0 |
| 20260505093141 | 4 | 90 | 0.0 | 0.0 | 0.00 | 0.18 | 0.05 | 94 | 1003.0 |
| 20260505092122 | 4 | 90 | 0.0 | 1.6 | 0.00 | 0.18 | 0.05 | 94 | 1003.0 |
| 20260505091122 | 4 | 90 | 0.0 | 3.2 | 0.00 | 0.18 | 0.05 | 94 | 1003.2 |
| 20260505090125 | 5 | 90 | 1.6 | 3.2 | 0.00 | 0.18 | 0.05 | 95 | 1003.2 |
| 20260505085122 | 5 | 90 | 0.0 | 0.0 | 0.00 | 0.18 | 0.05 | 94 | 1003.5 |
| 20260505084122 | 5 | 90 | 0.0 | 0.0 | 0.00 | 0.18 | 0.05 | 94 | 1003.7 |
| 20260505083124 | 5 | 90 | 0.0 | 0.0 | 0.00 | 0.18 | 0.05 | 94 | 1003.8 |
| 20260505082122 | 5 | 90 | 0.0 | 0.0 | 0.00 | 0.18 | 0.05 | 94 | 1003.8 |
| 20260505081122 | 5 | 90 | 0.0 | 0.0 | 0.00 | 0.18 | 0.05 | 94 | 1003.7 |
| 20260505080122 | 5 | 90 | 0.0 | 0.0 | 0.00 | 0.18 | 0.05 | 94 | 1003.9 |
| 20260505075122 | 5 | 90 | 0.0 | 0.0 | 0.00 | 0.18 | 0.05 | 95 | 1003.9 |
| 20260505074122 | 5 | 90 | 0.0 | 1.6 | 0.00 | 0.18 | 0.05 | 95 | 1004.0 |
| 20260505073122 | 5 | 90 | 0.0 | 3.2 | 0.00 | 0.18 | 0.05 | 95 | 1004.2 |
| 20260505072126 | 5 | 90 | 0.0 | 3.2 | 0.00 | 0.18 | 0.05 | 95 | 1004.2 |
| 20260505071122 | 5 | 90 | 0.0 | 0.0 | 0.03 | 0.18 | 0.05 | 95 | 1004.2 |
| 20260505070123 | 6 | 90 | 0.0 | 0.0 | 0.05 | 0.18 | 0.05 | 95 | 1004.2 |
| 20260505065124 | 6 | 90 | 0.0 | 0.0 | 0.08 | 0.18 | 0.05 | 95 | 1004.2 |
| 20260505064122 | 6 | 90 | 0.0 | 4.8 | 0.08 | 0.18 | 0.05 | 95 | 1004.2 |
| 20260505063122 | 6 | 84 | 1.6 | 4.8 | 0.08 | 0.18 | 0.05 | 95 | 1003.9 |
| 20260505062122 | 5 | 292 | 0.0 | 3.2 | 0.08 | 0.18 | 0.05 | 95 | 1004.4 |
| 20260505061122 | 5 | 305 | 1.6 | 4.8 | 0.05 | 0.15 | 0.03 | 95 | 1004.5 |
| 20260505060122 | 6 | 319 | 1.6 | 4.8 | 0.03 | 0.13 | 0.00 | 94 | 1004.5 |
| 20260505055122 | 6 | 293 | 1.6 | 4.8 | 0.00 | 0.10 | 0.10 | 93 | 1004.7 |
| 20260505054141 | 6 | 270 | 1.6 | 6.4 | 0.00 | 0.10 | 0.10 | 92 | 1004.5 |
| 20260505053122 | 6 | 270 | 1.6 | 4.8 | 0.00 | 0.10 | 0.10 | 91 | 1004.5 |
| 20260505052122 | 6 | 270 | 0.0 | 4.8 | 0.00 | 0.10 | 0.10 | 90 | 1004.5 |
| 20260505051141 | 6 | 270 | 0.0 | 0.0 | 0.00 | 0.10 | 0.10 | 88 | 1004.4 |
| 20260505050128 | 6 | 270 | 0.0 | 0.0 | 0.00 | 0.10 | 0.10 | 88 | 1004.4 |
| 20260505041122 | 6 | 289 | 3.2 | 8.0 | 0.03 | 0.10 | 0.10 | 92 | 1003.7 |
| 20260505040123 | 6 | 292 | 3.2 | 4.8 | 0.03 | 0.10 | 0.10 | 92 | 1003.7 |
| 20260505035122 | 6 | 292 | 3.2 | 6.4 | 0.03 | 0.10 | 0.10 | 92 | 1004.0 |
| 20260505034122 | 6 | 291 | 4.8 | 11.3 | 0.03 | 0.10 | 0.10 | 91 | 1003.8 |
| 20260505033123 | 6 | 286 | 4.8 | 8.0 | 0.03 | 0.10 | 0.10 | 91 | 1003.6 |
| 20260505032125 | 6 | 295 | 3.2 | 6.4 | 0.00 | 0.08 | 0.08 | 90 | 1003.9 |
| 20260505031141 | 6 | 279 | 4.8 | 8.0 | 0.00 | 0.08 | 0.08 | 90 | 1003.9 |
| 20260505030122 | 6 | 270 | 4.8 | 8.0 | 0.00 | 0.08 | 0.08 | 91 | 1003.9 |
| 20260505025141 | 6 | 270 | 3.2 | 6.4 | 0.03 | 0.08 | 0.08 | 91 | 1003.8 |
| 20260505024141 | 6 | 270 | 3.2 | 4.8 | 0.05 | 0.08 | 0.08 | 91 | 1003.5 |
| 20260505023122 | 6 | 274 | 1.6 | 8.0 | 0.08 | 0.08 | 0.08 | 88 | 1003.5 |
| 20260505022122 | 6 | 293 | 4.8 | 8.0 | 0.08 | 0.08 | 0.08 | 88 | 1003.7 |
| 20260505021122 | 6 | 224 | 3.2 | 4.8 | 0.08 | 0.08 | 0.08 | 86 | 1003.9 |
| 20260505020122 | 7 | 232 | 3.2 | 6.4 | 0.08 | 0.08 | 0.08 | 84 | 1003.8 |
| 20260505015122 | 7 | 247 | 4.8 | 6.4 | 0.05 | 0.05 | 0.05 | 83 | 1003.8 |
| 20260505014122 | 8 | 109 | 4.8 | 9.7 | 0.03 | 0.03 | 0.03 | 76 | 1003.7 |
| 20260505013124 | 9 | 321 | 6.4 | 19.3 | 0.00 | 0.00 | 0.00 | 66 | 1003.4 |
| 20260505012122 | 11 | 327 | 4.8 | 8.0 | 0.00 | 0.00 | 0.00 | 58 | 1003.2 |
| 20260505011122 | 11 | 297 | 4.8 | 8.0 | 0.00 | 0.00 | 0.00 | 56 | 1002.6 |
| 20260505010122 | 11 | 291 | 4.8 | 11.3 | 0.00 | 0.00 | 0.00 | 54 | 1002.6 |
| 20260505005122 | 11 | 298 | 6.4 | 12.9 | 0.00 | 0.00 | 0.00 | 53 | 1002.4 |
| 20260505004122 | 12 | 283 | 6.4 | 11.3 | 0.00 | 0.00 | 0.00 | 52 | 1002.4 |
| 20260505003122 | 12 | 285 | 4.8 | 11.3 | 0.00 | 0.00 | 0.00 | 51 | 1002.3 |
| 20260505002125 | 13 | 268 | 4.8 | 12.9 | 0.00 | 0.00 | 0.00 | 49 | 1002.3 |
| 20260505001122 | 13 | 276 | 4.8 | 9.7 | 0.00 | 0.00 | 0.00 | 46 | 1002.3 |
| 20260505000122 | 14 | 331 | 4.8 | 11.3 | 0.00 | 0.00 | 0.00 | 46 | 1002.3 |
| 20260504235122 | 14 | 289 | 4.8 | 8.0 | 0.00 | 0.00 | 0.00 | 47 | 1002.2 |
| 20260504234123 | 13 | 220 | 4.8 | 11.3 | 0.00 | 0.00 | 0.00 | 48 | 1002.3 |
| 20260504233122 | 15 | 223 | 4.8 | 11.3 | 0.00 | 0.00 | 0.00 | 45 | 1002.3 |
| 20260504232122 | 15 | 322 | 6.4 | 12.9 | 0.00 | 0.00 | 0.00 | 43 | 1002.2 |
| 20260504231122 | 15 | 360 | 4.8 | 6.4 | 0.00 | 0.00 | 0.00 | 43 | 1002.1 |
| 20260504230122 | 15 | 360 | 3.2 | 6.4 | 0.00 | 0.00 | 0.00 | 42 | 1002.0 |
| 20260504225125 | 16 | 324 | 3.2 | 6.4 | 0.00 | 0.00 | 0.00 | 41 | 1002.0 |
| 20260504224122 | 16 | 90 | 1.6 | 4.8 | 0.00 | 0.00 | 0.00 | 39 | 1002.0 |
| 20260504223122 | 16 | 90 | 3.2 | 6.4 | 0.00 | 0.00 | 0.00 | 40 | 1002.1 |
| 20260504222122 | 15 | 90 | 3.2 | 6.4 | 0.00 | 0.00 | 0.00 | 43 | 1002.0 |
| 20260504221122 | 15 | 133 | 3.2 | 6.4 | 0.00 | 0.00 | 0.00 | 40 | 1002.2 |
| 20260504220124 | 13 | 116 | 9.7 | 20.9 | 0.00 | 0.00 | 0.00 | 44 | 1002.3 |
| 20260504215122 | 15 | 101 | 9.7 | 14.5 | 0.00 | 0.00 | 0.00 | 41 | 1002.3 |
| 20260504214125 | 17 | 338 | 4.8 | 8.0 | 0.00 | 0.00 | 0.00 | 35 | 1001.9 |
| 20260504213122 | 17 | 316 | 4.8 | 9.7 | 0.00 | 0.00 | 0.00 | 35 | 1001.7 |
| 20260504212141 | 18 | 322 | 4.8 | 9.7 | 0.00 | 0.00 | 0.00 | 32 | 1001.7 |
| 20260504211122 | 17 | 285 | 4.8 | 8.0 | 0.00 | 0.00 | 0.00 | 33 | 1001.7 |
| 20260504210122 | 17 | 163 | 3.2 | 6.4 | 0.00 | 0.00 | 0.00 | 31 | 1001.7 |
| 20260504205143 | 18 | 103 | 4.8 | 8.0 | 0.00 | 0.00 | 0.00 | 31 | 1001.7 |
| 20260504204122 | 20 | 123 | 4.8 | 6.4 | 0.00 | 0.00 | 0.00 | 29 | 1001.9 |
| 20260504203122 | 18 | 322 | 4.8 | 11.3 | 0.00 | 0.00 | 0.00 | 32 | 1002.0 |
| 20260504202141 | 17 | 337 | 4.8 | 8.0 | 0.00 | 0.00 | 0.00 | 33 | 1002.3 |
| 20260504201122 | 17 | 337 | 1.6 | 6.4 | 0.00 | 0.00 | 0.00 | 31 | 1002.3 |
| 20260504200141 | 16 | 337 | 4.8 | 6.4 | 0.00 | 0.00 | 0.00 | 33 | 1002.3 |
| 20260504195122 | 16 | 337 | 3.2 | 6.4 | 0.00 | 0.00 | 0.00 | 34 | 1002.3 |
| 20260504194122 | 16 | 337 | 4.8 | 8.0 | 0.00 | 0.00 | 0.00 | 35 | 1002.4 |
| 20260504193122 | 17 | 337 | 4.8 | 8.0 | 0.00 | 0.00 | 0.00 | 35 | 1002.3 |
| 20260504192122 | 18 | 328 | 4.8 | 9.7 | 0.00 | 0.00 | 0.00 | 33 | 1002.4 |
| 20260504191122 | 17 | 317 | 4.8 | 8.0 | 0.00 | 0.00 | 0.00 | 33 | 1002.4 |
| 20260504190122 | 18 | 311 | 6.4 | 11.3 | 0.00 | 0.00 | 0.00 | 32 | 1002.4 |
| 20260504185122 | 18 | 315 | 4.8 | 8.0 | 0.00 | 0.00 | 0.00 | 34 | 1002.7 |
| 20260504184122 | 16 | 337 | 1.6 | 11.3 | 0.00 | 0.00 | 0.00 | 36 | 1003.0 |
| 20260504183122 | 16 | 337 | 3.2 | 4.8 | 0.00 | 0.00 | 0.00 | 33 | 1003.0 |
| 20260504182122 | 16 | 337 | 1.6 | 4.8 | 0.00 | 0.00 | 0.00 | 33 | 1003.0 |
| 20260504181124 | 16 | 337 | 1.6 | 4.8 | 0.00 | 0.00 | 0.00 | 33 | 1003.2 |
| 20260504180122 | 16 | 330 | 3.2 | 6.4 | 0.00 | 0.00 | 0.00 | 33 | 1003.4 |
| 20260504175123 | 17 | 318 | 4.8 | 12.9 | 0.00 | 0.00 | 0.00 | 33 | 1003.4 |
| 20260504174122 | 19 | 318 | 4.8 | 11.3 | 0.00 | 0.00 | 0.00 | 33 | 1003.5 |
| 20260504173141 | 17 | 329 | 4.8 | 11.3 | 0.00 | 0.00 | 0.00 | 38 | 1003.7 |
| 20260504172122 | 16 | 320 | 6.4 | 14.5 | 0.00 | 0.00 | 0.00 | 39 | 1003.8 |
| 20260504171122 | 16 | 309 | 4.8 | 11.3 | 0.00 | 0.00 | 0.00 | 39 | 1003.9 |
| 20260504170122 | 16 | 338 | 6.4 | 11.3 | 0.00 | 0.00 | 0.00 | 41 | 1003.8 |
| 20260504160122 | 15 | 25 | 4.8 | 8.0 | 0.00 | 0.00 | 0.00 | 41 | 1004.0 |
| 20260504151122 | 15 | 32 | 4.8 | 12.9 | 0.00 | 0.00 | 0.00 | 41 | 1004.1 |
| 20260504150122 | 15 | 337 | 6.4 | 14.5 | 0.00 | 0.00 | 0.00 | 42 | 1004.1 |
| 20260504141122 | 12 | 336 | 3.2 | 6.4 | 0.00 | 0.00 | 0.00 | 45 | 1003.9 |
| 20260504140122 | 12 | 354 | 4.8 | 9.7 | 0.00 | 0.00 | 0.00 | 45 | 1003.9 |
| 20260504130122 | 8 | 360 | 3.2 | 6.4 | 0.00 | 0.00 | 0.00 | 53 | 1003.9 |
| 20260504120123 | 7 | 315 | 3.2 | 4.8 | 0.00 | 0.00 | 0.00 | 53 | 1003.8 |
| 20260504110124 | 6 | 315 | 3.2 | 4.8 | 0.00 | 0.00 | 0.00 | 52 | 1004.0 |
| 20260504100122 | 6 | 315 | 3.2 | 4.8 | 0.00 | 0.00 | 0.00 | 56 | 1004.1 |